Aérodrome :
LOGIN :

S'inscrire | Disclaimer

   EN    FR    IT 

 










Légende :    VFR   VFR Marginal   IFR   IFR Intensif   IFR Très Intensif
Visi : 
Plafond : 
>= 8 km
>= 3000ft
5 à 8 km
1000 à 3000 ft
1500m à 5 km
500 à 1000 ft
800 à 1500m
200 à 500 ft
< 800m
< 200 ft
Symboles :   Orages  Brouillard  Fortes neiges  Fortes précipitations  Vent > 20 kt
SIGMETs :   Divers  Orages  Givrage  Turbulence  Onde Orograph.  Cendres Volcan.






- Altitude de l'aérodrome : 17 ft
- Code IATA : RHO


LGRP - Diagoras

DERNIER METAR :
  • 021220Z 25012KT 9999 FEW020 30/24 Q1004 NOSIG

METARs EXPIRÉS :
  • 021150Z 25012KT 9999 FEW020 30/23 Q1004 NOSIG
  • 021120Z 26011KT 9999 FEW020 31/22 Q1004 NOSIG
  • 021050Z 26011KT 9999 FEW020 31/22 Q1004 NOSIG
  • 021020Z 26009KT CAVOK 30/21 Q1005 NOSIG

TAF TAF LGRP
Valide du 02 à 12h jusqu'au 03 à 12h UTC


021100Z 0212/0312 26012KT 9999 FEW025
BECMG 0218/0220 VRB05KT



MET'MAP, la Météo Aéronautique d'un coup d'oeil ! - Copyright ORBIFLY Décembre 2007 - Disclaimer

ORBIFLY MET'MAP TEAM :

Programmation & Développement : Alexandra Zaïnal
Sur une idée originale de : Baudouin d'Aumeries
Assistance à la programmation : Marc-Olivier Méhu
Soutien technique & logistique : Manuel Goepfert

Contact : metmap@orbifly.com




SOURCES & CREDITS :

   NOAA